createdAt,value
2022-11-25T00:01:16.129Z,11.38
2022-11-25T00:03:44.469Z,14.85
2022-11-25T00:06:15.787Z,10.70
2022-11-25T00:08:44.431Z,10.17
2022-11-25T00:11:12.069Z,11.70
2022-11-25T00:13:39.667Z,11.82
2022-11-25T00:16:08.755Z,9.40
2022-11-25T00:18:37.057Z,9.82
2022-11-25T00:21:06.506Z,9.30
2022-11-25T00:23:33.599Z,8.90
2022-11-25T00:26:06.543Z,8.82
2022-11-25T00:28:33.211Z,8.18
2022-11-25T00:31:04.765Z,7.63
2022-11-25T00:33:31.403Z,8.80
2022-11-25T00:36:02.016Z,9.18
2022-11-25T00:38:29.288Z,8.75
2022-11-25T00:40:55.969Z,8.70
2022-11-25T00:43:22.620Z,8.95
2022-11-25T00:45:49.412Z,8.73
2022-11-25T00:48:16.129Z,9.80
2022-11-25T00:50:42.891Z,9.50
2022-11-25T00:53:11.016Z,9.90
2022-11-25T00:55:37.680Z,9.48
2022-11-25T00:58:04.329Z,10.17
2022-11-25T01:00:31.013Z,11.45
2022-11-25T01:02:57.716Z,11.55
2022-11-25T01:05:24.400Z,10.00
2022-11-25T01:07:51.111Z,8.13
2022-11-25T01:10:19.208Z,10.30
2022-11-25T01:12:47.224Z,10.43
2022-11-25T01:15:13.980Z,9.77
2022-11-25T01:17:40.641Z,11.82
2022-11-25T01:20:08.446Z,10.65
2022-11-25T01:22:35.147Z,11.83
2022-11-25T01:25:01.802Z,16.88
2022-11-25T01:27:29.856Z,16.67
2022-11-25T01:29:56.682Z,12.80
2022-11-25T01:32:23.634Z,14.18
2022-11-25T01:34:50.275Z,16.00
2022-11-25T01:37:16.970Z,17.58
2022-11-25T01:39:43.577Z,16.75
2022-11-25T01:42:10.252Z,17.75
2022-11-25T01:44:39.503Z,14.52
2022-11-25T01:47:12.927Z,16.87
2022-11-25T01:49:44.647Z,17.90
2022-11-25T01:52:16.618Z,15.18
2022-11-25T01:54:48.309Z,15.68
2022-11-25T01:57:21.868Z,15.63
2022-11-25T01:59:53.710Z,13.57
2022-11-25T02:02:21.061Z,15.63
2022-11-25T02:04:48.620Z,13.05
2022-11-25T02:07:20.668Z,13.70
2022-11-25T02:09:48.505Z,14.05
2022-11-25T02:12:17.768Z,15.07
2022-11-25T02:14:46.341Z,11.57
2022-11-25T02:17:14.401Z,11.88
2022-11-25T02:19:54.175Z,12.00
2022-11-25T02:22:26.857Z,15.88
2022-11-25T02:24:57.811Z,11.30
2022-11-25T02:27:25.916Z,13.85
2022-11-25T02:29:52.859Z,12.98
2022-11-25T02:32:21.710Z,12.18
2022-11-25T02:34:49.064Z,12.75
2022-11-25T02:37:17.827Z,13.27
2022-11-25T02:39:46.087Z,12.60
2022-11-25T02:42:13.057Z,13.15
2022-11-25T02:44:41.120Z,11.63
2022-11-25T02:47:07.788Z,12.15
2022-11-25T02:49:34.439Z,14.00
2022-11-25T02:52:01.090Z,12.73
2022-11-25T02:54:27.745Z,13.20
2022-11-25T02:56:54.499Z,14.25
2022-11-25T02:59:21.160Z,15.07
2022-11-25T03:04:16.283Z,19.50
2022-11-25T03:06:42.954Z,20.48
2022-11-25T03:09:09.575Z,25.20
2022-11-25T03:11:36.242Z,17.80
2022-11-25T03:14:02.897Z,21.10
2022-11-25T03:16:29.607Z,21.92
2022-11-25T03:18:56.284Z,17.63
2022-11-25T03:21:24.411Z,21.77
2022-11-25T03:23:51.044Z,18.40
2022-11-25T03:26:17.725Z,15.77
2022-11-25T03:28:44.376Z,17.15
2022-11-25T03:31:11.577Z,19.88
2022-11-25T03:33:38.289Z,17.80
2022-11-25T03:36:05.294Z,15.77
2022-11-25T03:38:33.316Z,12.83
2022-11-25T03:40:59.968Z,20.75
2022-11-25T03:43:26.655Z,16.75
2022-11-25T03:45:53.355Z,21.30
2022-11-25T03:48:20.059Z,13.07
2022-11-25T03:50:48.241Z,15.00
2022-11-25T03:53:14.924Z,13.63
2022-11-25T03:55:42.915Z,11.88
2022-11-25T03:58:09.580Z,15.88
2022-11-25T04:00:38.296Z,15.02
2022-11-25T04:03:04.997Z,16.30
2022-11-25T04:05:31.611Z,16.23
2022-11-25T04:07:58.479Z,18.60
2022-11-25T04:10:25.172Z,13.30
2022-11-25T04:12:53.939Z,11.80
2022-11-25T04:15:20.612Z,12.17
2022-11-25T04:17:47.350Z,15.63
2022-11-25T04:20:14.427Z,14.82
2022-11-25T04:22:41.437Z,12.70
2022-11-25T04:25:09.273Z,13.60
2022-11-25T04:27:35.937Z,13.33
2022-11-25T04:30:04.499Z,11.93
2022-11-25T04:32:31.252Z,12.98
2022-11-25T04:34:57.961Z,12.40
2022-11-25T04:37:24.591Z,16.35
2022-11-25T04:39:51.269Z,15.77
2022-11-25T04:42:18.181Z,17.10
2022-11-25T04:45:01.060Z,11.07
2022-11-25T04:47:32.853Z,12.82
2022-11-25T04:49:59.827Z,14.13
2022-11-25T04:52:26.976Z,12.47
2022-11-25T04:54:53.803Z,11.00
2022-11-25T04:57:20.596Z,10.50
2022-11-25T04:59:47.746Z,10.93
2022-11-25T05:02:15.572Z,9.27
2022-11-25T05:04:45.128Z,14.17
2022-11-25T05:07:12.199Z,13.68
2022-11-25T05:09:39.572Z,13.45
2022-11-25T05:12:07.482Z,11.48
2022-11-25T05:14:34.564Z,14.40
2022-11-25T05:17:01.671Z,12.53
2022-11-25T05:19:28.432Z,11.45
2022-11-25T05:21:56.689Z,12.05
2022-11-25T05:24:24.277Z,11.77
2022-11-25T05:26:51.066Z,13.57
2022-11-25T05:29:17.810Z,10.10
2022-11-25T05:31:44.487Z,11.85
2022-11-25T05:34:11.115Z,9.77
2022-11-25T05:36:37.823Z,8.25
2022-11-25T05:39:06.027Z,10.80
2022-11-25T05:41:32.697Z,9.33
2022-11-25T05:43:59.356Z,11.68
2022-11-25T05:46:26.117Z,12.13
2022-11-25T05:48:53.623Z,9.88
2022-11-25T05:51:20.542Z,10.98
2022-11-25T05:53:47.165Z,12.03
2022-11-25T05:56:15.195Z,9.20
2022-11-25T05:58:41.884Z,11.23
2022-11-25T06:01:09.103Z,11.30
2022-11-25T06:03:36.319Z,10.25
2022-11-25T06:06:03.751Z,11.23
2022-11-25T06:08:31.150Z,13.65
2022-11-25T06:10:57.892Z,15.48
2022-11-25T06:13:26.091Z,13.23
2022-11-25T06:15:52.871Z,14.55
2022-11-25T06:18:19.579Z,13.07
2022-11-25T06:20:55.445Z,19.80
2022-11-25T06:23:22.141Z,19.73
2022-11-25T06:25:48.805Z,14.95
2022-11-25T06:28:15.432Z,13.85
2022-11-25T06:30:43.541Z,14.67
2022-11-25T06:33:10.178Z,15.18
2022-11-25T06:35:36.817Z,13.73
2022-11-25T06:38:03.811Z,14.23
2022-11-25T06:40:30.471Z,15.10
2022-11-25T06:42:57.156Z,12.53
2022-11-25T06:45:23.827Z,13.60
2022-11-25T06:47:51.903Z,16.75
2022-11-25T06:50:18.675Z,21.30
2022-11-25T06:52:45.392Z,22.30
2022-11-25T06:55:12.097Z,17.47
2022-11-25T06:57:38.920Z,19.67
2022-11-25T07:00:07.143Z,21.73
2022-11-25T07:02:40.715Z,17.35
2022-11-25T07:05:09.985Z,15.00
2022-11-25T07:07:36.999Z,20.50
2022-11-25T07:10:04.236Z,21.08
2022-11-25T07:12:33.158Z,17.52
2022-11-25T07:14:59.960Z,13.13
2022-11-25T07:17:26.629Z,15.05
2022-11-25T07:19:53.312Z,27.53
2022-11-25T07:22:21.326Z,18.55
2022-11-25T07:24:47.994Z,22.10
2022-11-25T07:27:14.615Z,20.42
2022-11-25T07:30:10.645Z,16.55
2022-11-25T07:32:28.025Z,14.07
2022-11-25T07:34:54.737Z,15.80
2022-11-25T07:37:22.802Z,11.48
2022-11-25T07:39:49.489Z,10.88
2022-11-25T07:42:16.110Z,9.77
2022-11-25T07:44:42.848Z,11.53
2022-11-25T07:47:09.468Z,11.02
2022-11-25T07:49:36.299Z,9.88
2022-11-25T07:52:03.549Z,10.82
2022-11-25T07:54:31.577Z,13.18
2022-11-25T07:56:58.293Z,16.50
2022-11-25T07:59:25.220Z,17.95
2022-11-25T08:01:53.039Z,17.48
2022-11-25T08:04:21.292Z,18.33
2022-11-25T08:06:51.047Z,16.20
2022-11-25T08:09:20.786Z,17.20
2022-11-25T08:11:49.564Z,18.10
2022-11-25T08:14:16.941Z,18.77
2022-11-25T08:16:44.074Z,16.00
2022-11-25T08:19:14.194Z,14.93
2022-11-25T08:21:41.593Z,16.57
2022-11-25T08:24:08.343Z,12.73
2022-11-25T08:26:36.343Z,13.05
2022-11-25T08:29:05.772Z,13.95
2022-11-25T08:31:34.188Z,14.63
2022-11-25T08:34:02.517Z,10.67
2022-11-25T08:36:30.382Z,14.13
2022-11-25T08:38:59.199Z,11.55
2022-11-25T08:41:27.837Z,15.55
2022-11-25T08:43:54.846Z,12.55
2022-11-25T08:46:24.764Z,10.47
2022-11-25T08:48:51.659Z,12.63
2022-11-25T08:51:20.909Z,12.45
2022-11-25T08:53:48.120Z,11.02
2022-11-25T08:56:15.151Z,11.77
2022-11-25T08:58:41.837Z,12.90
2022-11-25T09:01:13.392Z,14.57
2022-11-25T09:03:44.322Z,19.33
2022-11-25T09:06:11.807Z,17.35
2022-11-25T09:08:41.224Z,15.98
2022-11-25T09:11:08.019Z,16.30
2022-11-25T09:13:35.350Z,16.42
2022-11-25T09:16:02.165Z,17.88
2022-11-25T09:18:30.041Z,16.52
2022-11-25T09:20:59.250Z,17.77
2022-11-25T09:23:26.393Z,15.50
2022-11-25T09:25:53.881Z,13.45
2022-11-25T09:28:20.880Z,15.73
2022-11-25T09:30:47.668Z,13.00
2022-11-25T09:33:14.621Z,14.30
2022-11-25T09:35:41.390Z,14.57
2022-11-25T09:38:09.889Z,11.82
2022-11-25T09:40:46.312Z,11.38
2022-11-25T09:43:23.032Z,12.30
2022-11-25T09:45:55.481Z,10.25
2022-11-25T09:48:36.215Z,11.77
2022-11-25T09:51:13.879Z,12.32
2022-11-25T09:53:46.784Z,11.93
2022-11-25T09:56:23.244Z,10.85
2022-11-25T09:58:55.685Z,10.27
2022-11-25T10:01:25.542Z,13.82
2022-11-25T10:03:56.410Z,11.40
2022-11-25T10:06:25.106Z,14.25
2022-11-25T10:08:56.575Z,13.80
2022-11-25T10:11:32.477Z,12.07
2022-11-25T10:14:03.441Z,14.20
2022-11-25T10:16:35.779Z,11.50
2022-11-25T10:19:11.625Z,12.43
2022-11-25T10:21:38.341Z,12.05
2022-11-25T10:24:13.033Z,11.95
2022-11-25T10:26:43.299Z,14.27
2022-11-25T10:29:37.341Z,12.00
2022-11-25T10:32:22.054Z,13.05
2022-11-25T10:34:52.346Z,10.30
2022-11-25T10:37:26.336Z,11.60
2022-11-25T10:39:54.420Z,11.27
2022-11-25T10:42:23.732Z,10.75
2022-11-25T10:44:50.573Z,10.02
2022-11-25T10:47:35.051Z,12.45
2022-11-25T10:50:14.324Z,10.85
2022-11-25T10:52:48.173Z,9.07
2022-11-25T10:55:20.327Z,8.90
2022-11-25T10:57:46.994Z,10.63
2022-11-25T11:00:36.542Z,11.25
2022-11-25T11:03:14.393Z,10.40
2022-11-25T11:05:52.345Z,10.95
2022-11-25T11:08:21.876Z,11.68
2022-11-25T11:11:17.244Z,9.82
2022-11-25T11:13:47.297Z,10.52
2022-11-25T11:16:28.537Z,12.77
2022-11-25T11:18:56.238Z,13.07
2022-11-25T11:21:28.651Z,16.05
2022-11-25T11:23:56.087Z,13.05
2022-11-25T11:26:26.581Z,14.35
2022-11-25T11:29:03.485Z,13.48
2022-11-25T11:31:34.744Z,13.27
2022-11-25T11:34:18.431Z,14.77
2022-11-25T11:36:58.057Z,14.30
2022-11-25T11:39:37.577Z,11.25
2022-11-25T11:42:11.596Z,13.15
2022-11-25T11:44:52.073Z,12.73
2022-11-25T11:47:30.363Z,12.30
2022-11-25T11:50:16.880Z,16.88
2022-11-25T11:52:55.330Z,14.50
2022-11-25T11:55:34.967Z,11.20
2022-11-25T11:58:11.719Z,9.88
2022-11-25T12:00:45.395Z,20.60
2022-11-25T12:03:17.157Z,15.75
2022-11-25T12:05:44.394Z,14.95
2022-11-25T12:08:16.989Z,16.23
2022-11-25T12:10:51.640Z,14.10
2022-11-25T12:13:28.066Z,13.45
2022-11-25T12:15:59.012Z,16.45
2022-11-25T12:18:38.912Z,14.98
2022-11-25T12:21:08.731Z,13.60
2022-11-25T12:23:44.641Z,11.45
2022-11-25T12:26:19.071Z,16.35
2022-11-25T12:28:53.054Z,9.32
2022-11-25T12:31:25.404Z,11.38
2022-11-25T12:33:59.607Z,13.07
2022-11-25T12:36:32.823Z,11.38
2022-11-25T12:39:03.777Z,11.30
2022-11-25T12:41:40.817Z,12.95
2022-11-25T12:44:15.475Z,11.10
2022-11-25T12:46:45.118Z,10.68
2022-11-25T12:49:19.597Z,9.90
2022-11-25T12:52:12.958Z,9.95
2022-11-25T12:54:58.309Z,12.95
2022-11-25T12:57:49.327Z,10.18
2022-11-25T13:03:43.123Z,13.82
2022-11-25T13:06:23.727Z,12.90
2022-11-25T13:09:03.254Z,13.25
2022-11-25T13:12:09.982Z,14.00
2022-11-25T13:14:56.355Z,18.70
2022-11-25T13:17:25.892Z,16.98
2022-11-25T13:20:54.136Z,12.73
2022-11-25T13:23:42.294Z,13.60
2022-11-25T13:26:49.008Z,17.50
2022-11-25T13:29:52.493Z,17.55
2022-11-25T13:32:34.740Z,13.65
2022-11-25T13:35:33.985Z,15.25
2022-11-25T13:38:00.729Z,18.60
2022-11-25T13:40:39.928Z,15.27
2022-11-25T13:43:21.063Z,14.60
2022-11-25T13:45:47.922Z,15.68
2022-11-25T13:48:21.684Z,11.73
2022-11-25T13:53:38.114Z,16.02
2022-11-25T13:56:16.022Z,22.60
2022-11-25T13:59:15.932Z,23.65
2022-11-25T14:01:53.405Z,20.55
2022-11-25T14:04:34.838Z,18.90
2022-11-25T14:07:17.160Z,18.17
2022-11-25T14:10:02.701Z,16.92
2022-11-25T14:13:02.662Z,18.35
2022-11-25T14:15:52.052Z,15.50
2022-11-25T14:19:28.191Z,16.42
2022-11-25T14:21:52.741Z,16.13
2022-11-25T14:24:37.458Z,16.33
2022-11-25T14:27:05.320Z,15.57
2022-11-25T14:29:38.343Z,18.00
2022-11-25T14:32:10.420Z,17.35
2022-11-25T14:34:41.233Z,19.63
2022-11-25T14:37:14.662Z,14.77
2022-11-25T14:39:46.994Z,16.13
2022-11-25T14:42:15.390Z,15.68
2022-11-25T14:44:47.219Z,16.05
2022-11-25T14:47:14.051Z,15.75
2022-11-25T14:49:52.006Z,15.80
2022-11-25T14:52:30.618Z,16.42
2022-11-25T14:54:58.509Z,16.20
2022-11-25T14:57:27.415Z,18.25
2022-11-25T14:59:57.037Z,17.98
2022-11-25T15:02:26.643Z,17.92
2022-11-25T15:05:00.618Z,16.13
2022-11-25T15:07:31.375Z,14.48
2022-11-25T15:09:58.268Z,17.70
2022-11-25T15:12:30.347Z,18.23
2022-11-25T15:14:57.501Z,19.52
2022-11-25T15:17:28.424Z,18.40
2022-11-25T15:19:57.566Z,16.50
2022-11-25T15:22:24.893Z,17.60
2022-11-25T15:27:44.999Z,13.95
2022-11-25T15:30:19.938Z,15.38
2022-11-25T15:32:47.124Z,16.23
2022-11-25T15:35:19.019Z,13.43
2022-11-25T15:37:45.693Z,15.18
2022-11-25T15:40:32.631Z,14.63
2022-11-25T15:43:00.334Z,14.07
2022-11-25T15:45:30.239Z,14.23
2022-11-25T15:47:57.293Z,12.88
2022-11-25T15:50:26.836Z,16.50
2022-11-25T15:52:55.584Z,14.13
2022-11-25T15:55:30.867Z,15.82
2022-11-25T15:58:03.534Z,13.07
2022-11-25T16:00:30.241Z,14.50
2022-11-25T16:02:58.225Z,14.02
2022-11-25T16:05:35.317Z,14.20
2022-11-25T16:08:20.426Z,14.32
2022-11-25T16:10:52.651Z,17.00
2022-11-25T16:13:37.072Z,17.33
2022-11-25T16:16:17.051Z,13.43
2022-11-25T16:19:10.465Z,15.45
2022-11-25T16:21:43.903Z,15.57
2022-11-25T16:24:33.955Z,18.27
2022-11-25T16:27:02.379Z,15.80
2022-11-25T16:29:34.128Z,24.00
2022-11-25T16:32:09.298Z,25.92
2022-11-25T16:34:36.522Z,24.35
2022-11-25T16:37:03.638Z,26.40
2022-11-25T16:39:30.280Z,26.38
2022-11-25T16:41:58.812Z,23.40
2022-11-25T16:44:27.051Z,23.10
2022-11-25T16:46:55.776Z,32.45
2022-11-25T16:49:22.878Z,31.00
2022-11-25T16:51:49.811Z,30.42
2022-11-25T16:54:16.955Z,26.85
2022-11-25T16:56:44.268Z,25.65
2022-11-25T16:59:16.845Z,22.77
2022-11-25T17:01:43.635Z,23.27
2022-11-25T17:04:13.411Z,22.85
2022-11-25T17:06:40.067Z,23.77
2022-11-25T17:09:07.519Z,22.38
2022-11-25T17:11:43.259Z,24.40
2022-11-25T17:14:17.636Z,26.52
2022-11-25T17:16:45.036Z,24.38
2022-11-25T17:19:16.283Z,32.08
2022-11-25T17:21:43.148Z,33.60
2022-11-25T17:24:16.548Z,38.33
2022-11-25T17:26:45.529Z,30.45
2022-11-25T17:29:15.177Z,30.70
2022-11-25T17:31:42.503Z,27.75
2022-11-25T17:34:14.715Z,28.15
2022-11-25T17:36:41.732Z,23.85
2022-11-25T17:39:09.558Z,19.83
2022-11-25T17:41:40.042Z,19.83
2022-11-25T17:44:11.942Z,20.95
2022-11-25T17:46:38.568Z,17.17
2022-11-25T17:49:06.490Z,18.10
2022-11-25T17:51:34.486Z,16.27
2022-11-25T17:54:01.169Z,17.13
2022-11-25T17:56:30.094Z,20.35
2022-11-25T17:59:01.372Z,21.63
2022-11-25T18:01:28.284Z,21.63
2022-11-25T18:03:55.071Z,20.20
2022-11-25T18:06:21.728Z,24.10
2022-11-25T18:08:49.861Z,23.85
2022-11-25T18:11:18.598Z,23.25
2022-11-25T18:13:46.885Z,23.35
2022-11-25T18:16:17.501Z,22.77
2022-11-25T18:18:44.248Z,28.55
2022-11-25T18:21:12.029Z,26.10
2022-11-25T18:23:38.755Z,26.88
2022-11-25T18:26:10.346Z,24.80
2022-11-25T18:28:37.128Z,26.13
2022-11-25T18:31:05.962Z,25.90
2022-11-25T18:33:33.508Z,27.73
2022-11-25T18:36:00.246Z,25.17
2022-11-25T18:38:26.970Z,22.25
2022-11-25T18:40:54.376Z,20.10
2022-11-25T18:43:25.022Z,19.65
2022-11-25T18:45:53.297Z,16.10
2022-11-25T18:48:22.306Z,19.42
2022-11-25T18:50:53.788Z,17.17
2022-11-25T18:53:20.615Z,17.50
2022-11-25T18:55:48.541Z,13.90
2022-11-25T18:58:18.304Z,19.38
2022-11-25T19:00:47.986Z,19.30
2022-11-25T19:03:18.345Z,16.58
2022-11-25T19:05:45.467Z,21.42
2022-11-25T19:08:12.494Z,22.42
2022-11-25T19:10:40.630Z,20.42
2022-11-25T19:13:11.899Z,24.85
2022-11-25T19:15:38.585Z,20.98
2022-11-25T19:18:06.866Z,18.13
2022-11-25T19:20:33.570Z,17.42
2022-11-25T19:23:11.795Z,19.98
2022-11-25T19:25:38.519Z,19.00
2022-11-25T19:28:05.215Z,21.00
2022-11-25T19:30:32.437Z,24.33
2022-11-25T19:33:01.196Z,24.77
2022-11-25T19:35:33.476Z,21.98
2022-11-25T19:38:00.137Z,21.30
2022-11-25T19:40:26.935Z,20.88
2022-11-25T19:42:53.611Z,17.95
2022-11-25T19:45:21.193Z,22.23
2022-11-25T19:47:50.625Z,19.10
2022-11-25T19:50:21.486Z,16.20
2022-11-25T19:52:50.007Z,19.90
2022-11-25T19:55:18.539Z,19.17
2022-11-25T19:57:45.618Z,21.67
2022-11-25T20:00:14.224Z,21.27
2022-11-25T20:02:41.811Z,21.55
2022-11-25T20:05:09.522Z,21.60
2022-11-25T20:07:36.574Z,22.35
2022-11-25T20:10:18.580Z,25.67
2022-11-25T20:12:45.516Z,23.58
2022-11-25T20:15:12.572Z,20.30
2022-11-25T20:17:42.309Z,22.52
2022-11-25T20:20:14.785Z,20.88
2022-11-25T20:22:44.078Z,24.73
2022-11-25T20:25:13.828Z,19.15
2022-11-25T20:27:41.950Z,20.73
2022-11-25T20:30:15.939Z,18.35
2022-11-25T20:32:42.674Z,17.95
2022-11-25T20:35:10.486Z,19.33
2022-11-25T20:37:38.042Z,19.08
2022-11-25T20:40:13.306Z,18.88
2022-11-25T20:42:41.699Z,20.35
2022-11-25T20:45:14.211Z,22.75
2022-11-25T20:47:41.000Z,26.85
2022-11-25T20:50:09.574Z,22.88
2022-11-25T20:52:36.993Z,21.83
2022-11-25T20:55:14.943Z,24.40
2022-11-25T20:57:43.233Z,25.83
2022-11-25T21:00:18.450Z,23.77
2022-11-25T21:02:45.297Z,25.00
2022-11-25T21:05:12.233Z,23.00
2022-11-25T21:07:39.809Z,25.40
2022-11-25T21:10:18.740Z,24.75
2022-11-25T21:12:47.029Z,20.73
2022-11-25T21:15:14.962Z,21.88
2022-11-25T21:17:41.665Z,23.08
2022-11-25T21:20:09.291Z,22.95
2022-11-25T21:22:41.047Z,25.00
2022-11-25T21:25:11.716Z,24.45
2022-11-25T21:27:38.442Z,21.38
2022-11-25T21:30:08.233Z,28.10
2022-11-25T21:32:34.946Z,27.23
2022-11-25T21:35:01.779Z,23.42
2022-11-25T21:37:31.220Z,27.80
2022-11-25T21:39:58.625Z,26.83
2022-11-25T21:42:26.009Z,28.52
2022-11-25T21:44:53.274Z,26.47
2022-11-25T21:47:23.511Z,24.48
2022-11-25T21:49:50.629Z,24.85
2022-11-25T21:52:18.321Z,26.02
2022-11-25T21:54:45.736Z,21.98
2022-11-25T21:57:15.285Z,27.15
2022-11-25T21:59:42.789Z,27.20
2022-11-25T22:02:16.111Z,30.25
2022-11-25T22:04:44.256Z,33.15
2022-11-25T22:07:11.013Z,27.65
2022-11-25T22:09:37.704Z,29.35
2022-11-25T22:12:04.743Z,28.63
2022-11-25T22:14:33.537Z,34.13
2022-11-25T22:17:01.134Z,39.72
2022-11-25T22:19:28.333Z,44.05
2022-11-25T22:21:56.347Z,51.40
2022-11-25T22:24:23.595Z,45.85
2022-11-25T22:26:57.178Z,40.20
2022-11-25T22:29:30.645Z,42.25
2022-11-25T22:31:57.932Z,39.67
2022-11-25T22:34:25.056Z,39.50
2022-11-25T22:36:52.039Z,39.15
2022-11-25T22:39:22.199Z,45.90
2022-11-25T22:41:51.073Z,47.25
2022-11-25T22:44:21.294Z,40.35
2022-11-25T22:46:48.848Z,37.55
2022-11-25T22:49:28.142Z,35.85
2022-11-25T22:51:55.020Z,38.13
2022-11-25T22:54:23.619Z,35.45
2022-11-25T22:56:50.330Z,38.90
2022-11-25T22:59:17.003Z,43.63
2022-11-25T23:01:44.121Z,37.03
2022-11-25T23:04:15.686Z,35.13
2022-11-25T23:06:42.403Z,35.20
2022-11-25T23:09:14.355Z,34.22
2022-11-25T23:11:42.812Z,32.65
2022-11-25T23:14:09.522Z,30.70
2022-11-25T23:16:36.400Z,30.35
2022-11-25T23:19:03.456Z,32.38
2022-11-25T23:21:30.721Z,29.08
2022-11-25T23:23:57.542Z,29.58
2022-11-25T23:26:24.389Z,28.42
2022-11-25T23:28:52.456Z,29.17
2022-11-25T23:31:19.154Z,28.45
2022-11-25T23:33:48.338Z,29.92
2022-11-25T23:36:17.951Z,28.77
2022-11-25T23:38:48.548Z,33.30
2022-11-25T23:41:16.878Z,27.83
2022-11-25T23:43:43.891Z,29.90
2022-11-25T23:46:14.395Z,30.83
2022-11-25T23:48:42.925Z,29.98
2022-11-25T23:51:10.457Z,29.20
2022-11-25T23:53:39.187Z,29.40
2022-11-25T23:56:06.503Z,31.08
2022-11-25T23:58:33.223Z,29.75
